createdAt,value
2019-03-21T00:01:37.662Z,91.92
2019-03-21T00:04:10.652Z,91.85
2019-03-21T00:06:41.024Z,81.08
2019-03-21T00:09:13.726Z,87.45
2019-03-21T00:12:07.077Z,86.10
2019-03-21T00:14:55.327Z,92.27
2019-03-21T00:17:28.452Z,81.75
2019-03-21T00:19:58.717Z,89.42
2019-03-21T00:22:29.377Z,90.67
2019-03-21T00:24:59.651Z,78.28
2019-03-21T00:27:29.876Z,84.25
2019-03-21T00:30:00.309Z,88.27
2019-03-21T00:32:30.839Z,86.75
2019-03-21T00:35:01.103Z,86.95
2019-03-21T00:37:32.332Z,80.20
2019-03-21T00:40:02.591Z,76.72
2019-03-21T00:42:32.892Z,82.70
2019-03-21T00:45:03.164Z,77.10
2019-03-21T00:47:33.924Z,83.30
2019-03-21T00:50:06.311Z,80.65
2019-03-21T00:52:36.604Z,78.20
2019-03-21T00:55:10.066Z,72.53
2019-03-21T00:57:40.379Z,68.92
2019-03-21T01:00:19.355Z,69.50
2019-03-21T01:02:51.114Z,68.65
2019-03-21T01:05:21.384Z,71.20
2019-03-21T01:07:55.333Z,72.03
2019-03-21T01:10:30.238Z,63.60
2019-03-21T01:13:00.539Z,75.45
2019-03-21T01:15:30.809Z,61.42
2019-03-21T01:18:01.101Z,68.97
2019-03-21T01:20:31.361Z,61.18
2019-03-21T01:23:01.655Z,60.10
2019-03-21T01:25:46.844Z,58.90
2019-03-21T01:28:17.144Z,56.25
2019-03-21T01:30:47.372Z,59.03
2019-03-21T01:33:17.656Z,59.42
2019-03-21T01:35:47.908Z,60.28
2019-03-21T01:38:18.240Z,53.25
2019-03-21T01:40:51.596Z,60.65
2019-03-21T01:43:22.660Z,56.83
2019-03-21T01:45:52.925Z,69.60
2019-03-21T01:48:23.182Z,60.05
2019-03-21T01:50:53.412Z,59.83
2019-03-21T01:53:23.682Z,49.25
2019-03-21T01:55:54.016Z,48.58
2019-03-21T01:58:25.427Z,48.92
2019-03-21T02:00:57.119Z,54.88
2019-03-21T02:03:27.425Z,48.68
2019-03-21T02:05:57.726Z,54.83
2019-03-21T02:08:27.965Z,52.85
2019-03-21T02:10:58.275Z,50.08
2019-03-21T02:13:28.474Z,48.13
2019-03-21T02:15:59.317Z,50.10
2019-03-21T02:18:29.689Z,46.40
2019-03-21T02:21:00.007Z,53.60
2019-03-21T02:23:30.287Z,49.33
2019-03-21T02:26:00.627Z,52.20
2019-03-21T02:28:30.924Z,53.13
2019-03-21T02:31:01.391Z,56.42
2019-03-21T02:33:33.489Z,48.75
2019-03-21T02:36:09.692Z,53.50
2019-03-21T02:38:39.873Z,44.03
2019-03-21T02:41:16.984Z,55.45
2019-03-21T02:43:47.255Z,47.90
2019-03-21T02:46:17.530Z,53.63
2019-03-21T02:48:48.021Z,42.23
2019-03-21T02:51:18.395Z,57.20
2019-03-21T02:53:48.592Z,50.78
2019-03-21T02:56:24.053Z,48.90
2019-03-21T02:58:54.691Z,48.10
2019-03-21T03:01:25.033Z,49.53
2019-03-21T03:03:55.342Z,53.05
2019-03-21T03:06:25.699Z,54.27
2019-03-21T03:08:56.018Z,54.08
2019-03-21T03:11:26.404Z,49.42
2019-03-21T03:13:56.690Z,50.45
2019-03-21T03:16:26.951Z,55.70
2019-03-21T03:18:57.245Z,47.23
2019-03-21T03:21:27.589Z,47.10
2019-03-21T03:23:57.842Z,40.10
2019-03-21T03:26:28.139Z,44.33
2019-03-21T03:28:58.416Z,42.38
2019-03-21T03:31:28.760Z,45.98
2019-03-21T03:33:59.026Z,35.50
2019-03-21T03:36:29.775Z,42.17
2019-03-21T03:39:00.080Z,42.98
2019-03-21T03:41:30.359Z,38.65
2019-03-21T03:44:00.624Z,30.68
2019-03-21T03:46:30.895Z,39.83
2019-03-21T03:49:01.754Z,37.28
2019-03-21T03:51:32.022Z,41.37
2019-03-21T03:54:02.326Z,42.83
2019-03-21T03:56:32.522Z,40.35
2019-03-21T03:59:05.766Z,37.42
2019-03-21T04:01:36.051Z,36.98
2019-03-21T04:04:07.358Z,33.63
2019-03-21T04:06:37.609Z,34.23
2019-03-21T04:09:09.142Z,37.50
2019-03-21T04:11:39.889Z,33.18
2019-03-21T04:14:10.741Z,36.70
2019-03-21T04:16:41.940Z,39.30
2019-03-21T04:19:12.555Z,27.15
2019-03-21T04:21:42.777Z,31.45
2019-03-21T04:24:13.064Z,39.38
2019-03-21T04:26:43.696Z,31.57
2019-03-21T04:29:13.979Z,34.38
2019-03-21T04:31:44.176Z,30.97
2019-03-21T04:34:14.464Z,41.05
2019-03-21T04:36:44.730Z,26.57
2019-03-21T04:39:15.022Z,35.68
2019-03-21T04:41:45.879Z,32.33
2019-03-21T04:44:16.195Z,42.70
2019-03-21T04:46:46.392Z,34.95
2019-03-21T04:49:16.643Z,37.98
2019-03-21T04:51:46.828Z,36.95
2019-03-21T04:54:17.054Z,38.48
2019-03-21T04:56:47.240Z,33.78
2019-03-21T04:59:17.988Z,46.58
2019-03-21T05:01:48.280Z,49.73
2019-03-21T05:04:18.518Z,37.80
2019-03-21T05:06:48.786Z,44.25
2019-03-21T05:09:19.037Z,43.73
2019-03-21T05:11:49.274Z,39.10
2019-03-21T05:14:19.510Z,39.78
2019-03-21T05:16:51.254Z,49.42
2019-03-21T05:19:21.545Z,38.17
2019-03-21T05:21:51.808Z,42.53
2019-03-21T05:24:22.469Z,37.80
2019-03-21T05:26:52.711Z,41.20
2019-03-21T05:29:23.024Z,37.13
2019-03-21T05:31:53.287Z,48.00
2019-03-21T05:34:23.583Z,38.23
2019-03-21T05:36:54.971Z,48.05
2019-03-21T05:39:25.282Z,45.17
2019-03-21T05:41:55.547Z,50.80
2019-03-21T05:44:30.824Z,46.83
2019-03-21T05:47:00.568Z,49.93
2019-03-21T05:49:30.956Z,42.17
2019-03-21T05:52:01.212Z,52.05
2019-03-21T05:54:31.521Z,42.08
2019-03-21T05:57:01.889Z,40.45
2019-03-21T05:59:32.183Z,42.15
2019-03-21T06:02:02.469Z,54.18
2019-03-21T06:04:32.767Z,40.92
2019-03-21T06:07:11.913Z,41.45
2019-03-21T06:09:42.239Z,36.98
2019-03-21T06:12:12.489Z,50.95
2019-03-21T06:14:48.524Z,43.35
2019-03-21T06:17:18.752Z,41.90
2019-03-21T06:19:51.920Z,44.03
2019-03-21T06:22:37.344Z,46.37
2019-03-21T06:25:18.864Z,49.15
2019-03-21T06:27:49.178Z,40.73
2019-03-21T06:30:38.703Z,44.90
2019-03-21T06:33:09.003Z,44.42
2019-03-21T06:35:40.382Z,39.05
2019-03-21T06:38:10.789Z,43.90
2019-03-21T06:40:41.075Z,48.92
2019-03-21T06:43:11.364Z,43.10
2019-03-21T06:45:47.844Z,53.25
2019-03-21T06:48:13.524Z,37.73
2019-03-21T06:50:43.816Z,41.28
2019-03-21T06:53:14.108Z,47.60
2019-03-21T06:55:44.516Z,51.15
2019-03-21T06:58:14.775Z,48.68
2019-03-21T07:00:45.170Z,62.25
2019-03-21T07:03:16.530Z,39.70
2019-03-21T07:05:47.035Z,49.30
2019-03-21T07:08:17.249Z,66.57
2019-03-21T07:10:47.550Z,43.50
2019-03-21T07:13:17.750Z,43.13
2019-03-21T07:15:48.238Z,43.92
2019-03-21T07:18:18.512Z,38.10
2019-03-21T07:20:48.786Z,55.10
2019-03-21T07:23:19.057Z,42.83
2019-03-21T07:25:49.524Z,44.38
2019-03-21T07:28:20.659Z,42.35
2019-03-21T07:30:51.002Z,43.13
2019-03-21T07:33:21.324Z,39.95
2019-03-21T07:35:51.650Z,39.40
2019-03-21T07:38:23.049Z,41.88
2019-03-21T07:40:53.321Z,56.90
2019-03-21T07:43:23.617Z,44.58
2019-03-21T07:45:53.871Z,44.42
2019-03-21T07:48:24.171Z,82.22
2019-03-21T07:50:54.370Z,108.97
2019-03-21T07:53:24.672Z,66.95
2019-03-21T07:55:54.933Z,68.75
2019-03-21T07:58:25.281Z,56.10
2019-03-21T08:00:55.521Z,59.38
2019-03-21T08:03:25.811Z,55.67
2019-03-21T08:05:56.083Z,50.60
2019-03-21T08:08:26.371Z,56.42
2019-03-21T08:10:56.706Z,63.95
2019-03-21T08:13:26.877Z,54.58
2019-03-21T08:15:57.139Z,57.30
2019-03-21T08:18:27.460Z,57.30
2019-03-21T08:20:59.995Z,47.35
2019-03-21T08:23:29.689Z,64.92
2019-03-21T08:25:59.963Z,49.63
2019-03-21T08:28:30.235Z,44.15
2019-03-21T08:31:09.188Z,48.65
2019-03-21T08:33:39.435Z,49.53
2019-03-21T08:36:09.764Z,44.80
2019-03-21T08:38:39.996Z,47.80
2019-03-21T08:41:10.541Z,41.02
2019-03-21T08:43:40.739Z,45.75
2019-03-21T08:46:10.938Z,45.88
2019-03-21T08:48:41.193Z,50.98
2019-03-21T08:51:11.519Z,43.33
2019-03-21T08:53:41.793Z,41.63
2019-03-21T08:56:12.066Z,47.38
2019-03-21T08:58:42.304Z,46.42
2019-03-21T09:01:13.361Z,47.48
2019-03-21T09:03:43.627Z,49.05
2019-03-21T09:06:13.949Z,49.63
2019-03-21T09:08:44.187Z,47.27
2019-03-21T09:11:14.478Z,47.13
2019-03-21T09:13:44.706Z,47.78
2019-03-21T09:16:14.978Z,40.78
2019-03-21T09:18:45.289Z,47.20
2019-03-21T09:21:19.927Z,60.73
2019-03-21T09:23:47.485Z,59.38
2019-03-21T09:26:17.775Z,47.55
2019-03-21T09:28:48.087Z,54.83
2019-03-21T09:31:18.372Z,65.08
2019-03-21T09:33:48.678Z,54.73
2019-03-21T09:36:18.986Z,48.20
2019-03-21T09:38:49.285Z,52.35
2019-03-21T09:41:19.630Z,51.83
2019-03-21T09:43:49.960Z,46.40
2019-03-21T09:46:20.236Z,43.80
2019-03-21T09:48:50.557Z,56.42
2019-03-21T09:51:30.655Z,47.70
2019-03-21T09:53:53.513Z,51.88
2019-03-21T09:56:24.157Z,48.95
2019-03-21T09:58:54.535Z,55.48
2019-03-21T10:01:24.827Z,48.98
2019-03-21T10:03:55.052Z,52.03
2019-03-21T10:06:25.258Z,65.05
2019-03-21T10:08:56.280Z,50.23
2019-03-21T10:11:26.682Z,68.92
2019-03-21T10:13:56.984Z,83.75
2019-03-21T10:16:27.315Z,45.15
2019-03-21T10:18:59.744Z,55.17
2019-03-21T10:21:30.037Z,46.68
2019-03-21T10:24:00.277Z,55.05
2019-03-21T10:26:30.554Z,43.28
2019-03-21T10:29:00.861Z,57.33
2019-03-21T10:31:31.136Z,51.88
2019-03-21T10:34:01.377Z,53.23
2019-03-21T10:36:31.772Z,54.88
2019-03-21T10:39:02.060Z,54.80
2019-03-21T10:41:32.350Z,49.38
2019-03-21T10:44:03.760Z,46.68
2019-03-21T10:46:34.012Z,57.85
2019-03-21T10:49:04.340Z,52.70
2019-03-21T10:51:34.609Z,41.15
2019-03-21T10:54:05.853Z,43.98
2019-03-21T10:56:36.141Z,43.52
2019-03-21T10:59:06.379Z,59.33
2019-03-21T11:01:36.651Z,52.50
2019-03-21T11:04:06.955Z,52.05
2019-03-21T11:06:37.146Z,49.75
2019-03-21T11:09:08.783Z,47.15
2019-03-21T11:11:39.089Z,44.15
2019-03-21T11:14:09.415Z,55.23
2019-03-21T11:16:39.698Z,52.23
2019-03-21T11:19:09.989Z,47.67
2019-03-21T11:21:41.302Z,40.52
2019-03-21T11:24:11.511Z,42.48
2019-03-21T11:26:41.872Z,49.30
2019-03-21T11:29:12.131Z,44.40
2019-03-21T11:31:42.435Z,48.80
2019-03-21T11:34:12.699Z,45.52
2019-03-21T11:36:43.020Z,46.90
2019-03-21T11:39:13.334Z,44.42
2019-03-21T11:41:43.692Z,47.30
2019-03-21T11:44:14.154Z,44.53
2019-03-21T11:46:44.349Z,49.18
2019-03-21T11:49:15.031Z,48.15
2019-03-21T11:51:45.280Z,46.88
2019-03-21T11:54:15.600Z,45.80
2019-03-21T11:56:45.882Z,43.13
2019-03-21T11:59:16.188Z,40.58
2019-03-21T12:01:46.490Z,56.73
2019-03-21T12:04:16.852Z,38.50
2019-03-21T12:06:47.130Z,41.40
2019-03-21T12:09:17.434Z,42.03
2019-03-21T12:11:47.648Z,45.73
2019-03-21T12:14:18.840Z,45.55
2019-03-21T12:16:49.264Z,49.90
2019-03-21T12:19:19.582Z,40.85
2019-03-21T12:21:49.854Z,43.33
2019-03-21T12:24:20.184Z,34.27
2019-03-21T12:26:51.028Z,51.58
2019-03-21T12:29:21.227Z,44.00
2019-03-21T12:31:51.578Z,34.13
2019-03-21T12:34:21.896Z,35.20
2019-03-21T12:36:52.189Z,33.10
2019-03-21T12:39:22.521Z,37.28
2019-03-21T12:41:52.784Z,36.50
2019-03-21T12:44:23.010Z,39.18
2019-03-21T12:46:53.756Z,32.17
2019-03-21T12:49:24.027Z,28.87
2019-03-21T12:51:54.222Z,29.30
2019-03-21T12:54:24.541Z,45.67
2019-03-21T12:56:54.805Z,31.27
2019-03-21T12:59:25.844Z,36.88
2019-03-21T13:01:57.317Z,32.30
2019-03-21T13:04:27.641Z,36.08
2019-03-21T13:06:57.927Z,27.87
2019-03-21T13:09:28.225Z,31.95
2019-03-21T13:11:58.441Z,26.05
2019-03-21T13:14:28.710Z,32.98
2019-03-21T13:16:59.105Z,30.75
2019-03-21T13:19:29.431Z,34.05
2019-03-21T13:21:59.739Z,26.00
2019-03-21T13:24:30.063Z,29.87
2019-03-21T13:27:00.488Z,28.90
2019-03-21T13:29:30.748Z,23.45
2019-03-21T13:32:01.055Z,37.73
2019-03-21T13:34:31.258Z,16.67
2019-03-21T13:37:01.497Z,16.00
2019-03-21T13:39:31.703Z,37.40
2019-03-21T13:42:02.008Z,21.02
2019-03-21T13:44:32.282Z,20.40
2019-03-21T13:47:02.595Z,25.02
2019-03-21T13:49:32.897Z,22.82
2019-03-21T13:52:04.749Z,21.60
2019-03-21T13:54:35.478Z,24.02
2019-03-21T13:57:05.809Z,31.70
2019-03-21T13:59:36.117Z,19.25
2019-03-21T14:02:06.441Z,18.67
2019-03-21T14:04:36.712Z,20.15
2019-03-21T14:07:07.092Z,24.67
2019-03-21T14:09:38.560Z,24.63
2019-03-21T14:12:08.789Z,20.55
2019-03-21T14:14:38.982Z,26.10
2019-03-21T14:17:09.320Z,43.30
2019-03-21T14:19:39.622Z,34.75
2019-03-21T14:22:13.508Z,29.05
2019-03-21T14:24:43.905Z,49.40
2019-03-21T14:27:14.225Z,33.15
2019-03-21T14:29:44.457Z,33.92
2019-03-21T14:32:14.696Z,33.15
2019-03-21T14:34:44.980Z,28.40
2019-03-21T14:37:15.279Z,36.55
2019-03-21T14:39:45.574Z,36.38
2019-03-21T14:42:15.891Z,25.37
2019-03-21T14:44:47.079Z,26.50
2019-03-21T14:47:17.494Z,22.42
2019-03-21T14:49:47.818Z,21.07
2019-03-21T14:52:18.121Z,23.77
2019-03-21T14:54:48.430Z,33.10
2019-03-21T14:57:18.744Z,30.72
2019-03-21T14:59:49.014Z,29.92
2019-03-21T15:02:21.304Z,31.75
2019-03-21T15:04:51.611Z,35.63
2019-03-21T15:07:21.903Z,29.95
2019-03-21T15:09:52.236Z,27.45
2019-03-21T15:12:22.537Z,27.10
2019-03-21T15:14:52.977Z,20.70
2019-03-21T15:17:23.247Z,21.50
2019-03-21T15:19:54.608Z,28.73
2019-03-21T15:22:24.952Z,21.25
2019-03-21T15:24:55.149Z,21.75
2019-03-21T15:27:25.487Z,21.93
2019-03-21T15:29:55.792Z,22.50
2019-03-21T15:32:27.089Z,22.52
2019-03-21T15:34:57.433Z,24.15
2019-03-21T15:37:27.780Z,25.55
2019-03-21T15:39:58.038Z,24.75
2019-03-21T15:42:28.393Z,30.00
2019-03-21T15:45:15.448Z,30.40
2019-03-21T15:47:30.604Z,29.10
2019-03-21T15:50:00.841Z,26.23
2019-03-21T15:52:31.123Z,36.33
2019-03-21T15:55:01.563Z,36.80
2019-03-21T15:57:33.388Z,34.55
2019-03-21T16:00:08.616Z,33.83
2019-03-21T16:02:39.177Z,30.05
2019-03-21T16:05:11.259Z,39.53
2019-03-21T16:07:41.577Z,24.77
2019-03-21T16:10:11.799Z,38.30
2019-03-21T16:12:42.091Z,24.00
2019-03-21T16:15:12.715Z,23.77
2019-03-21T16:17:42.987Z,23.73
2019-03-21T16:20:13.287Z,21.33
2019-03-21T16:22:43.595Z,25.57
2019-03-21T16:25:13.914Z,22.70
2019-03-21T16:27:44.185Z,33.98
2019-03-21T16:30:15.532Z,24.98
2019-03-21T16:32:45.748Z,29.90
2019-03-21T16:35:16.096Z,20.68
2019-03-21T16:37:46.297Z,32.88
2019-03-21T16:40:16.946Z,25.32
2019-03-21T16:42:47.253Z,32.55
2019-03-21T16:45:17.536Z,27.48
2019-03-21T16:47:47.865Z,30.10
2019-03-21T16:50:19.800Z,35.68
2019-03-21T16:52:50.147Z,30.88
2019-03-21T16:55:20.511Z,29.45
2019-03-21T16:57:50.840Z,33.85
2019-03-21T17:00:21.293Z,40.08
2019-03-21T17:02:51.609Z,33.58
2019-03-21T17:05:22.608Z,31.93
2019-03-21T17:07:53.156Z,31.65
2019-03-21T17:10:23.765Z,43.85
2019-03-21T17:12:54.107Z,41.92
2019-03-21T17:15:24.580Z,37.17
2019-03-21T17:17:55.059Z,31.10
2019-03-21T17:20:25.354Z,28.30
2019-03-21T17:22:55.719Z,30.25
2019-03-21T17:25:25.991Z,34.08
2019-03-21T17:27:56.950Z,40.35
2019-03-21T17:30:27.150Z,43.68
2019-03-21T17:32:57.493Z,41.70
2019-03-21T17:35:27.704Z,36.88
2019-03-21T17:38:01.254Z,35.68
2019-03-21T17:43:00.877Z,32.83
2019-03-21T17:45:31.145Z,33.60
2019-03-21T17:48:01.496Z,36.77
2019-03-21T17:50:31.756Z,36.55
2019-03-21T17:53:02.255Z,40.80
2019-03-21T17:55:32.521Z,40.20
2019-03-21T17:58:02.859Z,39.63
2019-03-21T18:00:36.617Z,38.53
2019-03-21T18:05:38.198Z,42.20
2019-03-21T18:08:08.658Z,40.28
2019-03-21T18:10:39.061Z,45.98
2019-03-21T18:13:09.358Z,68.50
2019-03-21T18:15:39.663Z,62.00
2019-03-21T18:18:10.013Z,54.08
2019-03-21T18:20:40.318Z,58.10
2019-03-21T18:23:10.609Z,71.75
2019-03-21T18:25:40.832Z,77.62
2019-03-21T18:28:11.149Z,64.55
2019-03-21T18:30:41.462Z,62.15
2019-03-21T18:33:12.255Z,82.95
2019-03-21T18:35:42.683Z,86.35
2019-03-21T18:38:12.886Z,73.42
2019-03-21T18:40:43.242Z,67.82
2019-03-21T18:43:14.664Z,69.55
2019-03-21T18:45:44.938Z,71.57
2019-03-21T18:48:15.259Z,75.83
2019-03-21T18:50:45.524Z,76.85
2019-03-21T18:53:15.931Z,78.50
2019-03-21T18:55:46.260Z,73.85
2019-03-21T18:58:16.553Z,78.78
2019-03-21T19:00:46.837Z,77.35
2019-03-21T19:03:17.181Z,80.17
2019-03-21T19:05:47.462Z,87.47
2019-03-21T19:08:17.787Z,89.47
2019-03-21T19:10:48.062Z,94.45
2019-03-21T19:13:18.391Z,94.60
2019-03-21T19:15:48.837Z,84.10
2019-03-21T19:18:19.129Z,105.92
2019-03-21T19:20:49.466Z,84.90
2019-03-21T19:23:19.736Z,91.97
2019-03-21T19:25:50.335Z,133.52
2019-03-21T19:28:20.621Z,121.60
2019-03-21T19:30:50.920Z,111.68
2019-03-21T19:33:22.735Z,145.02
2019-03-21T19:35:53.086Z,145.97
2019-03-21T19:38:23.987Z,144.85
2019-03-21T19:40:54.499Z,127.72
2019-03-21T19:43:25.765Z,127.47
2019-03-21T19:45:56.206Z,126.58
2019-03-21T19:48:26.470Z,140.10
2019-03-21T19:50:56.823Z,124.92
2019-03-21T19:53:28.901Z,117.47
2019-03-21T19:56:08.083Z,118.28
2019-03-21T19:58:31.570Z,127.75
2019-03-21T20:01:01.884Z,123.58
2019-03-21T20:03:33.265Z,127.22
2019-03-21T20:06:03.647Z,116.40
2019-03-21T20:08:33.924Z,133.25
2019-03-21T20:11:04.200Z,125.97
2019-03-21T20:13:34.542Z,127.02
2019-03-21T20:16:04.785Z,135.37
2019-03-21T20:18:35.316Z,126.87
2019-03-21T20:21:05.628Z,128.30
2019-03-21T20:23:36.047Z,143.95
2019-03-21T20:26:06.459Z,154.00
2019-03-21T20:28:36.805Z,142.25
2019-03-21T20:31:07.088Z,135.10
2019-03-21T20:33:37.413Z,150.68
2019-03-21T20:36:07.693Z,154.05
2019-03-21T20:38:38.013Z,135.40
2019-03-21T20:41:09.297Z,138.43
2019-03-21T20:43:39.673Z,126.25
2019-03-21T20:46:09.981Z,142.53
2019-03-21T20:48:39.079Z,137.95
2019-03-21T20:51:09.447Z,128.27
2019-03-21T20:53:39.780Z,150.42
2019-03-21T20:56:10.075Z,148.00
2019-03-21T20:58:40.401Z,151.80
2019-03-21T21:01:10.743Z,156.60
2019-03-21T21:03:41.039Z,138.97
2019-03-21T21:06:11.414Z,139.88
2019-03-21T21:08:41.718Z,159.27
2019-03-21T21:11:12.025Z,142.98
2019-03-21T21:13:42.341Z,143.07
2019-03-21T21:16:12.619Z,144.77
2019-03-21T21:18:42.992Z,157.12
2019-03-21T21:21:13.319Z,153.57
2019-03-21T21:23:43.593Z,159.55
2019-03-21T21:26:13.955Z,144.80
2019-03-21T21:28:44.232Z,170.30
2019-03-21T21:31:14.589Z,161.85
2019-03-21T21:33:44.880Z,170.30
2019-03-21T21:36:21.973Z,208.07
2019-03-21T21:38:47.165Z,264.30
2019-03-21T21:41:17.523Z,231.07
2019-03-21T21:43:47.803Z,234.22
2019-03-21T21:46:18.417Z,424.35
2019-03-21T21:48:48.667Z,320.20
2019-03-21T21:51:19.034Z,315.25
2019-03-21T21:53:49.308Z,332.25
2019-03-21T21:56:19.647Z,374.20
2019-03-21T21:58:49.932Z,328.23
2019-03-21T22:01:20.308Z,321.32
2019-03-21T22:03:50.572Z,327.73
2019-03-21T22:06:21.089Z,357.70
2019-03-21T22:08:51.690Z,418.63
2019-03-21T22:11:22.098Z,387.45
2019-03-21T22:13:52.376Z,361.92
2019-03-21T22:16:22.885Z,292.10
2019-03-21T22:18:53.156Z,350.73
2019-03-21T22:21:24.007Z,269.95
2019-03-21T22:23:54.246Z,293.27
2019-03-21T22:26:29.643Z,243.37
2019-03-21T22:28:56.510Z,211.65
2019-03-21T22:31:26.813Z,204.32
2019-03-21T22:33:57.083Z,211.12
2019-03-21T22:36:27.424Z,192.95
2019-03-21T22:38:57.701Z,201.40
2019-03-21T22:41:28.062Z,225.35
2019-03-21T22:43:58.352Z,216.12
2019-03-21T22:46:29.128Z,210.95
2019-03-21T22:48:59.308Z,229.87
2019-03-21T22:51:29.530Z,230.32
2019-03-21T22:53:59.862Z,232.05
2019-03-21T22:56:40.518Z,223.45
2019-03-21T22:59:01.923Z,218.15
2019-03-21T23:01:33.002Z,208.20
2019-03-21T23:04:03.302Z,209.03
2019-03-21T23:06:33.580Z,218.45
2019-03-21T23:09:05.132Z,227.47
2019-03-21T23:11:35.702Z,221.25
2019-03-21T23:14:05.992Z,211.40
2019-03-21T23:16:37.244Z,225.28
2019-03-21T23:19:07.631Z,237.90
2019-03-21T23:21:37.836Z,239.02
2019-03-21T23:24:08.191Z,238.95
2019-03-21T23:26:38.403Z,237.27
2019-03-21T23:29:08.794Z,236.45
2019-03-21T23:31:38.999Z,216.25
2019-03-21T23:34:09.291Z,213.90
2019-03-21T23:36:40.563Z,214.95
2019-03-21T23:39:11.533Z,208.57
2019-03-21T23:41:55.439Z,220.90
2019-03-21T23:46:55.020Z,223.90
2019-03-21T23:49:25.363Z,228.47
2019-03-21T23:51:56.215Z,231.23
2019-03-21T23:54:26.532Z,238.80
2019-03-21T23:57:04.404Z,235.85
2019-03-21T23:59:29.332Z,241.20
